McLeod, ND (58057)

8:44 PM CDT on July 10, 2014 (GMT -0500)
Open Plains ND (KNDWYNDM2) Elev 1056 ft | 46.25 °N, 97.12 °W | Change Station

Current weather conditions updated 14 minutes ago

Scattered Clouds
Scattered Clouds
72.1 °F
Feels Like 70 °F
N
2.2
Wind Variable Wind from SE

Tomorrow is forecast to be Warmer than today.

Today
High -- | Low -- °F
--% Chance of Precip.
Yesterday
High -- | Low -- °F
Precip. -- in
5:46 AM 9:21 PM
Waxing Gibbous, 97% visible
Pressure 29.83 in
Visibility 10.0 miles
Clouds Few 5000 ft
Scattered Clouds 11000 ft
Heat Index 70 °F
Dew Point 68 °F
Humidity 88%
Rainfall 0.00 in
Snow Depth Not available.
UV 0 out of 12
Pollen 4.70 out of 12
Air Quality Not available.
Flu Activity Sporadic
METAR KGWR 110135Z AUTO 14008KT 10SM FEW050 SCT110 23/21 A2983 RMK A01 P000

More Conditions Fewer Conditions

Pressure 29.83 in
Visibility 10.0 miles
Clouds Few 5000 ft
Scattered Clouds 11000 ft
Heat Index 70 °F
Dew Point 68 °F
Humidity 88%
Rainfall 0.00 in
Snow Depth Not available.
UV 0 out of 12
Pollen 4.70 out of 12
Air Quality Not available.
Flu Activity Sporadic
METAR KGWR 110135Z AUTO 14008KT 10SM FEW050 SCT110 23/21 A2983 RMK A01 P000

More Conditions Fewer Conditions

10-Day Weather Forecast

Almanac

Astronomy

Jul. 10, 2014 Rise Set
Actual Time 5:46 AM CDT 9:21 PM CDT
Civil Twilight 5:08 AM CDT 9:59 PM CDT
Nautical Twilight 4:17 AM CDT 10:50 PM CDT
Astronomical Twilight 3:08 AM CDT 11:57 PM CDT
Moon 7:31 PM CDT (7/10) 4:02 AM CDT (7/10)
Length of Visible Light 16h 51m
Length of Day
15h 35m
Tomorrow will be 1m 29s shorter.
Waxing Gibbous, 97% of the Moon is Illuminated
Today
Waxing Gibbous
Jul 12
Full
Jul 18
Last Quarter
Jul 26
New
Aug 3
First Quarter

Today's Extremes

State Highs State Lows

Community

WunderPhotos

Upload Photos

1,732,338 photos uploaded!

Nearby

Snow Depth

Station Depth Elevation
No new snow has been reported.

Earthquake Activity

City Distance Mag. Time & Date
No recent earthquake activity has been reported nearby.
Minimum magnitude displayed is 2.5.

Coastal Water Temperatures

Place Temperature
No Stations Reporting

Nearby Weather Stations

Station Location Temp. Heat Index Dew Point Humidity Wind Precip. Elev Updated Type
Open Plains ND, Wyndmere, ND 72.1 °F 70 °F 68 °F 88% SE  at  2.2 mph - / hr 1056 ft 8:30 PM CDT Normal

Show More Stations Show Fewer Stations